createdAt,value
2019-02-28T00:04:57.878Z,78.50
2019-02-28T00:07:23.777Z,78.55
2019-02-28T00:09:49.553Z,78.65
2019-02-28T00:12:15.348Z,78.16
2019-02-28T00:14:41.137Z,78.34
2019-02-28T00:17:09.206Z,78.82
2019-02-28T00:19:34.721Z,79.02
2019-02-28T00:22:00.504Z,79.30
2019-02-28T00:24:27.254Z,79.62
2019-02-28T00:26:54.063Z,79.65
2019-02-28T00:29:19.839Z,79.73
2019-02-28T00:31:49.463Z,79.57
2019-02-28T00:34:13.462Z,80.17
2019-02-28T00:36:39.257Z,80.36
2019-02-28T00:39:05.054Z,80.70
2019-02-28T00:41:30.931Z,80.88
2019-02-28T00:43:57.107Z,81.09
2019-02-28T00:46:24.458Z,81.43
2019-02-28T00:48:53.006Z,81.31
2019-02-28T00:51:17.930Z,80.92
2019-02-28T00:53:43.898Z,81.73
2019-02-28T00:56:09.678Z,81.84
2019-02-28T00:58:35.482Z,81.69
2019-02-28T01:01:01.256Z,81.76
2019-02-28T01:03:27.617Z,81.92
2019-02-28T01:05:54.728Z,81.70
2019-02-28T01:08:22.133Z,81.91
2019-02-28T01:10:48.223Z,82.24
2019-02-28T01:13:14.016Z,82.92
2019-02-28T01:15:44.454Z,82.82
2019-02-28T01:18:07.490Z,82.46
2019-02-28T01:20:33.272Z,83.13
2019-02-28T01:22:59.352Z,83.07
2019-02-28T01:25:26.748Z,83.05
2019-02-28T01:27:53.079Z,83.11
2019-02-28T01:30:20.384Z,83.48
2019-02-28T01:32:49.726Z,83.35
2019-02-28T01:35:14.221Z,83.82
2019-02-28T01:40:53.932Z,83.67
2019-02-28T01:43:19.722Z,83.61
2019-02-28T01:45:45.503Z,83.36
2019-02-28T01:48:11.294Z,83.55
2019-02-28T01:50:37.145Z,84.05
2019-02-28T01:53:02.927Z,84.02
2019-02-28T01:55:29.376Z,84.81
2019-02-28T02:01:04.718Z,84.91
2019-02-28T02:03:30.499Z,85.45
2019-02-28T02:05:56.330Z,85.92
2019-02-28T02:09:03.814Z,86.04
2019-02-28T02:11:29.743Z,86.53
2019-02-28T02:13:55.513Z,86.95
2019-02-28T02:16:26.781Z,86.98
2019-02-28T02:18:49.006Z,87.12
2019-02-28T02:21:56.723Z,87.19
2019-02-28T02:24:24.385Z,86.97
2019-02-28T02:26:50.547Z,87.26
2019-02-28T02:29:37.162Z,87.93
2019-02-28T02:32:04.058Z,87.93
2019-02-28T02:34:29.922Z,87.70
2019-02-28T02:36:55.743Z,88.29
2019-02-28T02:39:21.537Z,88.60
2019-02-28T02:41:47.863Z,88.72
2019-02-28T02:44:14.627Z,88.44
2019-02-28T02:46:40.544Z,88.65
2019-02-28T02:49:06.458Z,88.98
2019-02-28T02:51:32.256Z,89.14
2019-02-28T02:53:58.282Z,89.10
2019-02-28T02:56:24.092Z,89.02
2019-02-28T02:58:49.872Z,89.35
2019-02-28T03:01:15.723Z,89.70
2019-02-28T03:03:44.263Z,89.22
2019-02-28T03:06:13.969Z,89.48
2019-02-28T03:08:37.445Z,89.47
2019-02-28T03:11:04.658Z,89.03
2019-02-28T03:13:30.387Z,88.88
2019-02-28T03:15:59.256Z,89.33
2019-02-28T03:18:23.886Z,89.05
2019-02-28T03:20:49.688Z,89.66
2019-02-28T03:23:15.482Z,89.73
2019-02-28T03:25:41.272Z,89.43
2019-02-28T03:28:07.050Z,89.21
2019-02-28T03:30:33.789Z,90.15
2019-02-28T03:33:00.543Z,90.37
2019-02-28T03:35:26.326Z,90.98
2019-02-28T03:37:52.116Z,91.03
2019-02-28T03:40:17.908Z,91.29
2019-02-28T03:42:43.698Z,91.64
2019-02-28T03:45:51.146Z,91.53
2019-02-28T03:48:16.940Z,91.28
2019-02-28T03:50:42.729Z,91.24
2019-02-28T03:53:08.518Z,91.37
2019-02-28T03:55:40.346Z,90.96
2019-02-28T03:58:05.450Z,90.80
2019-02-28T04:00:33.911Z,90.45
2019-02-28T04:02:59.067Z,91.19
2019-02-28T04:05:28.185Z,92.24
2019-02-28T04:07:54.703Z,91.98
2019-02-28T04:10:21.717Z,92.31
2019-02-28T04:12:48.170Z,92.26
2019-02-28T04:16:07.410Z,92.16
2019-02-28T04:18:23.342Z,92.40
2019-02-28T04:20:49.130Z,92.73
2019-02-28T04:23:14.912Z,92.88
2019-02-28T04:25:40.695Z,92.90
2019-02-28T04:28:06.504Z,93.26
2019-02-28T04:33:19.593Z,93.29
2019-02-28T04:35:45.368Z,93.26
2019-02-28T04:38:11.174Z,92.83
2019-02-28T04:40:36.943Z,92.56
2019-02-28T04:43:02.743Z,92.90
2019-02-28T04:45:28.524Z,92.83
2019-02-28T04:48:14.706Z,92.53
2019-02-28T04:50:40.495Z,92.53
2019-02-28T04:53:06.314Z,92.85
2019-02-28T04:55:34.224Z,92.78
2019-02-28T04:57:59.789Z,93.71
2019-02-28T05:00:25.565Z,93.20
2019-02-28T05:02:54.876Z,93.42
2019-02-28T05:05:19.058Z,93.10
2019-02-28T05:07:44.852Z,93.82
2019-02-28T05:10:10.746Z,93.04
2019-02-28T05:12:39.921Z,92.91
2019-02-28T05:18:17.927Z,92.28
2019-02-28T05:20:45.985Z,92.52
2019-02-28T05:23:11.415Z,92.66
2019-02-28T05:25:37.209Z,92.78
2019-02-28T05:28:02.989Z,92.87
2019-02-28T05:30:28.773Z,93.03
2019-02-28T05:32:54.555Z,93.28
2019-02-28T05:35:25.483Z,93.72
2019-02-28T05:37:48.576Z,93.76
2019-02-28T05:40:15.726Z,93.47
2019-02-28T05:42:41.511Z,93.70
2019-02-28T05:48:20.900Z,94.08
2019-02-28T05:50:46.959Z,93.80
2019-02-28T05:53:14.375Z,94.07
2019-02-28T05:55:40.177Z,94.15
2019-02-28T05:58:05.951Z,94.46
2019-02-28T06:00:33.340Z,94.76
2019-02-28T06:02:59.446Z,94.95
2019-02-28T06:05:25.241Z,94.97
2019-02-28T06:07:51.030Z,95.03
2019-02-28T06:10:16.819Z,95.15
2019-02-28T06:12:43.839Z,95.64
2019-02-28T06:15:51.971Z,95.99
2019-02-28T06:18:17.750Z,96.15
2019-02-28T06:20:43.562Z,96.20
2019-02-28T06:23:10.150Z,96.48
2019-02-28T06:25:37.047Z,96.60
2019-02-28T06:28:02.823Z,96.89
2019-02-28T06:30:28.617Z,96.75
2019-02-28T06:32:57.801Z,96.76
2019-02-28T06:35:22.101Z,97.07
2019-02-28T06:37:47.889Z,96.87
2019-02-28T06:40:55.346Z,96.85
2019-02-28T06:43:21.142Z,96.96
2019-02-28T06:45:46.943Z,97.15
2019-02-28T06:48:12.724Z,97.10
2019-02-28T06:50:58.413Z,96.97
2019-02-28T06:53:24.200Z,96.97
2019-02-28T06:55:50.006Z,96.92
2019-02-28T06:58:15.788Z,97.07
2019-02-28T07:00:44.165Z,97.31
2019-02-28T07:03:09.271Z,97.50
2019-02-28T07:05:35.052Z,97.26
2019-02-28T07:08:00.867Z,97.21
2019-02-28T07:10:26.626Z,97.47
2019-02-28T07:12:52.422Z,97.28
2019-02-28T07:15:23.759Z,97.38
2019-02-28T07:17:47.491Z,97.33
2019-02-28T07:20:55.264Z,97.39
2019-02-28T07:23:22.261Z,97.37
2019-02-28T07:25:48.757Z,97.39
2019-02-28T07:28:14.554Z,97.50
2019-02-28T07:30:40.329Z,97.58
2019-02-28T07:33:10.452Z,97.62
2019-02-28T07:35:36.765Z,97.49
2019-02-28T07:38:01.540Z,97.43
2019-02-28T07:40:27.315Z,97.24
2019-02-28T07:42:53.113Z,97.16
2019-02-28T07:45:18.890Z,97.05
2019-02-28T07:47:44.684Z,96.72
2019-02-28T07:53:37.533Z,96.37
2019-02-28T07:56:03.777Z,96.24
2019-02-28T07:58:33.489Z,96.10
2019-02-28T08:00:58.714Z,96.08
2019-02-28T08:03:24.496Z,95.88
2019-02-28T08:05:50.272Z,95.51
2019-02-28T08:08:16.091Z,95.37
2019-02-28T08:10:41.859Z,95.05
2019-02-28T08:13:07.659Z,94.78
2019-02-28T08:15:33.437Z,94.61
2019-02-28T08:17:59.238Z,94.81
2019-02-28T08:20:25.123Z,94.55
2019-02-28T08:22:50.899Z,94.58
2019-02-28T08:25:16.685Z,94.30
2019-02-28T08:27:42.482Z,94.11
2019-02-28T08:31:07.923Z,93.57
2019-02-28T08:33:33.715Z,93.77
2019-02-28T08:35:59.491Z,93.65
2019-02-28T08:38:25.286Z,93.71
2019-02-28T08:40:51.690Z,93.45
2019-02-28T08:45:52.162Z,93.17
2019-02-28T08:48:17.948Z,92.49
2019-02-28T08:50:43.733Z,92.65
2019-02-28T08:53:12.443Z,93.01
2019-02-28T08:55:38.405Z,92.90
2019-02-28T08:58:06.603Z,92.66
2019-02-28T09:00:33.368Z,92.64
2019-02-28T09:03:01.004Z,92.45
2019-02-28T09:05:30.092Z,92.03
2019-02-28T09:07:55.685Z,91.61
2019-02-28T09:11:03.155Z,91.49
2019-02-28T09:13:28.953Z,91.56
2019-02-28T09:15:54.733Z,91.82
2019-02-28T09:18:20.543Z,91.77
2019-02-28T09:20:46.315Z,91.40
2019-02-28T09:23:12.101Z,91.38
2019-02-28T09:25:37.889Z,91.11
2019-02-28T09:31:17.744Z,90.31
2019-02-28T09:33:43.538Z,90.23
2019-02-28T09:36:09.320Z,89.94
2019-02-28T09:38:35.107Z,89.37
2019-02-28T09:41:20.814Z,88.88
2019-02-28T09:43:46.607Z,88.88
2019-02-28T09:46:15.311Z,88.85
2019-02-28T09:48:40.080Z,88.66
2019-02-28T09:51:05.875Z,88.56
2019-02-28T09:53:31.649Z,88.79
2019-02-28T09:55:57.443Z,88.47
2019-02-28T09:58:26.261Z,87.59
2019-02-28T10:00:51.041Z,86.62
2019-02-28T10:03:18.559Z,85.52
2019-02-28T10:05:44.520Z,85.69
2019-02-28T10:08:10.317Z,85.91
2019-02-28T10:10:36.109Z,85.40
2019-02-28T10:13:01.902Z,84.22
2019-02-28T10:15:27.695Z,84.64
2019-02-28T10:17:53.474Z,85.12
2019-02-28T10:20:39.542Z,85.34
2019-02-28T10:23:25.215Z,84.69
2019-02-28T10:26:10.914Z,83.70
2019-02-28T10:28:36.701Z,83.70
2019-02-28T10:31:02.502Z,84.42
2019-02-28T10:33:28.280Z,84.66
2019-02-28T10:35:54.073Z,83.68
2019-02-28T10:38:19.856Z,82.87
2019-02-28T10:40:45.654Z,83.03
2019-02-28T10:43:12.176Z,82.99
2019-02-28T10:45:59.014Z,81.76
2019-02-28T10:48:24.799Z,81.76
2019-02-28T10:50:50.704Z,80.97
2019-02-28T10:53:16.499Z,80.88
2019-02-28T10:58:40.489Z,78.41
2019-02-28T11:01:47.963Z,78.41
2019-02-28T11:04:13.756Z,79.42
2019-02-28T11:06:39.655Z,80.94
2019-02-28T11:09:05.448Z,80.82
2019-02-28T11:11:31.257Z,79.89
2019-02-28T11:13:57.032Z,79.75
2019-02-28T11:16:23.666Z,79.71
2019-02-28T11:18:50.526Z,79.37
2019-02-28T11:23:50.282Z,78.71
2019-02-28T11:26:17.435Z,79.24
2019-02-28T11:28:43.234Z,79.70
2019-02-28T11:31:11.094Z,78.99
2019-02-28T11:33:39.522Z,79.28
2019-02-28T11:36:04.534Z,78.32
2019-02-28T11:38:30.314Z,78.20
2019-02-28T11:40:57.496Z,78.33
2019-02-28T11:43:43.693Z,78.59
2019-02-28T11:46:09.490Z,78.59
2019-02-28T11:48:35.273Z,78.23
2019-02-28T11:51:01.062Z,78.36
2019-02-28T11:53:26.849Z,78.56
2019-02-28T11:55:53.642Z,77.71
2019-02-28T11:58:20.472Z,77.70
2019-02-28T12:00:46.517Z,76.79
2019-02-28T12:03:12.323Z,77.44
2019-02-28T12:05:38.107Z,76.61
2019-02-28T12:08:09.357Z,76.92
2019-02-28T12:10:31.801Z,76.28
2019-02-28T12:12:57.594Z,76.46
2019-02-28T12:15:43.262Z,76.32
2019-02-28T12:18:09.091Z,76.77
2019-02-28T12:20:34.915Z,76.53
2019-02-28T12:23:00.720Z,75.09
2019-02-28T12:26:08.182Z,73.97
2019-02-28T12:28:35.294Z,74.22
2019-02-28T12:31:01.755Z,74.75
2019-02-28T12:33:27.643Z,74.27
2019-02-28T12:35:54.786Z,73.65
2019-02-28T12:38:21.141Z,74.32
2019-02-28T12:40:49.312Z,74.38
2019-02-28T12:43:14.638Z,73.18
2019-02-28T12:46:00.832Z,70.43
2019-02-28T12:48:27.218Z,70.68
2019-02-28T12:50:54.324Z,71.91
2019-02-28T12:53:24.128Z,73.01
2019-02-28T12:55:47.814Z,73.32
2019-02-28T12:58:13.591Z,73.86
2019-02-28T13:01:21.088Z,73.41
2019-02-28T13:03:46.889Z,71.82
2019-02-28T13:06:12.670Z,72.19
2019-02-28T13:08:38.713Z,72.15
2019-02-28T13:11:06.268Z,72.86
2019-02-28T13:13:32.175Z,73.91
2019-02-28T13:15:57.957Z,72.96
2019-02-28T13:18:23.763Z,73.99
2019-02-28T13:20:49.542Z,73.33
2019-02-28T13:23:17.176Z,73.02
2019-02-28T13:25:43.034Z,72.64
2019-02-28T13:28:08.811Z,70.61
2019-02-28T13:30:34.693Z,70.69
2019-02-28T13:33:00.533Z,69.48
2019-02-28T13:35:47.637Z,70.09
2019-02-28T13:38:17.716Z,69.96
2019-02-28T13:41:01.428Z,71.59
2019-02-28T13:43:27.304Z,71.59
2019-02-28T13:45:55.862Z,71.58
2019-02-28T13:48:26.145Z,71.28
2019-02-28T13:50:48.477Z,71.38
2019-02-28T13:53:18.272Z,71.89
2019-02-28T13:55:41.959Z,72.46
2019-02-28T13:58:07.847Z,70.81
2019-02-28T14:01:19.456Z,71.30
2019-02-28T14:04:02.894Z,72.18
2019-02-28T14:06:28.684Z,72.18
2019-02-28T14:08:54.476Z,73.07
2019-02-28T14:11:20.287Z,74.08
2019-02-28T14:13:46.062Z,74.48
2019-02-28T14:16:11.864Z,73.74
2019-02-28T14:18:37.642Z,74.08
2019-02-28T14:21:04.086Z,73.93
2019-02-28T14:23:31.217Z,73.81
2019-02-28T14:25:57.017Z,73.49
2019-02-28T14:28:22.797Z,73.75
2019-02-28T14:30:48.697Z,74.15
2019-02-28T14:33:16.202Z,74.10
2019-02-28T14:35:42.204Z,74.58
2019-02-28T14:38:07.988Z,75.46
2019-02-28T14:40:33.788Z,75.13
2019-02-28T14:42:59.565Z,75.17
2019-02-28T14:48:39.906Z,76.15
2019-02-28T14:51:06.962Z,76.40
2019-02-28T14:53:32.749Z,76.27
2019-02-28T14:55:58.544Z,76.25
2019-02-28T14:58:24.327Z,76.39
2019-02-28T15:00:50.124Z,76.67
2019-02-28T15:03:16.005Z,76.67
2019-02-28T15:08:55.346Z,77.06
2019-02-28T15:11:21.158Z,76.71
2019-02-28T15:13:46.921Z,77.13
2019-02-28T15:16:12.721Z,77.41
2019-02-28T15:18:38.506Z,77.71
2019-02-28T15:21:04.498Z,77.65
2019-02-28T15:23:34.226Z,78.01
2019-02-28T15:25:59.692Z,77.81
2019-02-28T15:28:25.476Z,77.79
2019-02-28T15:30:51.257Z,77.64
2019-02-28T15:33:17.062Z,77.48
2019-02-28T15:35:42.831Z,77.42
2019-02-28T15:38:09.984Z,77.59
2019-02-28T15:40:58.807Z,77.61
2019-02-28T15:43:23.884Z,77.88
2019-02-28T15:45:49.668Z,78.09
2019-02-28T15:48:15.451Z,78.16
2019-02-28T15:50:41.241Z,77.88
2019-02-28T15:53:26.930Z,77.73
2019-02-28T15:55:52.809Z,77.73
2019-02-28T15:58:18.607Z,77.50
2019-02-28T16:00:44.377Z,77.73
2019-02-28T16:03:10.172Z,77.70
2019-02-28T16:05:42.473Z,77.71
2019-02-28T16:08:08.805Z,78.02
2019-02-28T16:11:13.236Z,78.81
2019-02-28T16:13:39.038Z,79.21
2019-02-28T16:16:04.886Z,78.40
2019-02-28T16:18:30.675Z,77.87
2019-02-28T16:20:56.499Z,78.26
2019-02-28T16:23:23.632Z,77.99
2019-02-28T16:25:50.250Z,78.03
2019-02-28T16:28:17.721Z,78.13
2019-02-28T16:30:43.506Z,78.10
2019-02-28T16:33:09.302Z,78.29
2019-02-28T16:35:35.186Z,78.25
2019-02-28T16:38:00.981Z,78.69
2019-02-28T16:41:08.428Z,78.95
2019-02-28T16:43:34.220Z,79.71
2019-02-28T16:46:00.013Z,79.12
2019-02-28T16:48:25.807Z,79.68
2019-02-28T16:50:53.810Z,79.54
2019-02-28T16:53:19.378Z,79.84
2019-02-28T16:55:45.153Z,79.93
2019-02-28T16:58:10.957Z,79.88
2019-02-28T17:00:39.615Z,80.44
2019-02-28T17:03:07.373Z,80.83
2019-02-28T17:05:32.141Z,81.36
2019-02-28T17:07:57.931Z,81.91
2019-02-28T17:10:44.250Z,81.55
2019-02-28T17:13:30.094Z,81.42
2019-02-28T17:16:15.774Z,81.61
2019-02-28T17:21:17.951Z,82.52
2019-02-28T17:23:42.843Z,82.95
2019-02-28T17:26:08.616Z,82.59
2019-02-28T17:28:54.448Z,83.04
2019-02-28T17:34:07.648Z,83.15
2019-02-28T17:36:33.438Z,83.20
2019-02-28T17:38:59.229Z,83.20
2019-02-28T17:41:25.008Z,83.28
2019-02-28T17:44:33.971Z,83.14
2019-02-28T17:51:08.913Z,83.48
2019-02-28T17:54:17.233Z,83.12
2019-02-28T17:57:23.825Z,83.53
2019-02-28T18:00:51.791Z,83.49
2019-02-28T18:04:16.618Z,83.51
2019-02-28T18:22:26.331Z,84.68
2019-02-28T18:25:31.907Z,84.75
2019-02-28T18:28:39.362Z,85.01
2019-02-28T18:31:46.834Z,84.90
2019-02-28T18:34:12.820Z,85.25
2019-02-28T18:36:40.159Z,85.74
2019-02-28T18:39:48.370Z,86.03
2019-02-28T18:42:16.113Z,86.26
2019-02-28T18:44:43.359Z,86.13
2019-02-28T18:47:09.151Z,86.38
2019-02-28T18:49:34.925Z,86.47
2019-02-28T18:52:00.721Z,85.89
2019-02-28T18:54:26.508Z,86.21
2019-02-28T18:56:52.297Z,86.30
2019-02-28T19:02:25.271Z,86.38
2019-02-28T19:04:51.058Z,86.69
2019-02-28T19:07:16.852Z,86.80
2019-02-28T19:09:42.657Z,86.54
2019-02-28T19:12:08.451Z,87.22
2019-02-28T19:14:34.750Z,87.21
2019-02-28T19:17:00.548Z,87.56
2019-02-28T19:19:26.329Z,87.79
2019-02-28T19:21:52.130Z,87.82
2019-02-28T19:24:17.911Z,87.40
2019-02-28T19:26:43.740Z,87.40
2019-02-28T19:29:09.510Z,87.11
2019-02-28T19:31:35.314Z,86.70
2019-02-28T19:34:01.106Z,86.87
2019-02-28T19:36:26.887Z,86.73
2019-02-28T19:38:52.693Z,86.74
2019-02-28T19:41:18.468Z,86.53
2019-02-28T19:43:44.271Z,86.86
2019-02-28T19:46:10.058Z,86.81
2019-02-28T19:48:35.850Z,86.84
2019-02-28T19:51:01.632Z,86.56
2019-02-28T19:53:47.330Z,86.67
2019-02-28T19:56:13.117Z,86.67
2019-02-28T19:58:38.911Z,86.93
2019-02-28T20:01:04.736Z,87.14
2019-02-28T20:03:30.551Z,86.92
2019-02-28T20:05:56.300Z,86.78
2019-02-28T20:08:22.119Z,86.74
2019-02-28T20:10:47.911Z,86.62
2019-02-28T20:13:13.721Z,86.51
2019-02-28T20:18:26.832Z,86.80
2019-02-28T20:20:52.616Z,86.77
2019-02-28T20:23:18.417Z,86.59
2019-02-28T20:25:44.198Z,86.72
2019-02-28T20:28:10.013Z,86.61
2019-02-28T20:30:35.810Z,86.46
2019-02-28T20:33:01.591Z,86.56
2019-02-28T20:35:27.375Z,86.24
2019-02-28T20:37:53.166Z,86.30
2019-02-28T20:41:00.644Z,86.20
2019-02-28T20:43:26.447Z,85.94
2019-02-28T20:45:52.236Z,86.15
2019-02-28T20:51:05.556Z,86.12
2019-02-28T20:53:31.389Z,85.87
2019-02-28T20:55:57.169Z,85.85
2019-02-28T20:58:42.856Z,85.11
2019-02-28T21:01:08.760Z,85.11
2019-02-28T21:03:34.557Z,85.61
2019-02-28T21:06:00.369Z,85.51
2019-02-28T21:08:26.172Z,85.58
2019-02-28T21:10:51.966Z,85.45
2019-02-28T21:13:17.750Z,85.43
2019-02-28T21:15:43.545Z,85.61
2019-02-28T21:18:09.322Z,85.40
2019-02-28T21:20:55.030Z,85.56
2019-02-28T21:23:20.814Z,85.56
2019-02-28T21:25:46.614Z,85.48
2019-02-28T21:28:12.401Z,85.37
2019-02-28T21:30:38.181Z,85.43
2019-02-28T21:33:03.969Z,85.42
2019-02-28T21:38:43.774Z,85.47
2019-02-28T21:41:09.570Z,85.17
2019-02-28T21:43:35.347Z,84.95
2019-02-28T21:46:01.137Z,85.14
2019-02-28T21:48:26.910Z,85.19
2019-02-28T21:50:52.705Z,85.10
2019-02-28T21:53:18.485Z,85.21
2019-02-28T21:56:04.185Z,84.72
2019-02-28T21:58:31.238Z,84.72
2019-02-28T22:00:57.664Z,84.98
2019-02-28T22:03:23.486Z,85.14
2019-02-28T22:05:49.254Z,85.13
2019-02-28T22:08:15.048Z,85.30
2019-02-28T22:10:40.841Z,85.22
2019-02-28T22:13:06.617Z,85.23
2019-02-28T22:15:32.437Z,84.81
2019-02-28T22:17:58.216Z,84.80
2019-02-28T22:20:24.021Z,84.60
2019-02-28T22:22:49.799Z,84.40
2019-02-28T22:25:57.269Z,84.35
2019-02-28T22:28:23.859Z,84.33
2019-02-28T22:33:47.807Z,84.48
2019-02-28T22:38:51.744Z,84.44
2019-02-28T22:41:17.535Z,84.10
2019-02-28T22:43:43.314Z,84.24
2019-02-28T22:46:09.103Z,84.25
2019-02-28T22:48:34.888Z,84.10
2019-02-28T22:51:00.695Z,83.93
2019-02-28T22:53:26.459Z,83.80
2019-02-28T22:55:52.301Z,83.68
2019-02-28T22:58:18.076Z,83.90
2019-02-28T23:01:43.528Z,83.85
2019-02-28T23:04:09.311Z,83.93
2019-02-28T23:06:35.105Z,83.86
2019-02-28T23:09:00.898Z,84.00
2019-02-28T23:11:26.694Z,83.87
2019-02-28T23:13:52.481Z,83.86
2019-02-28T23:16:18.273Z,83.77
2019-02-28T23:18:44.059Z,83.87
2019-02-28T23:21:09.876Z,83.88
2019-02-28T23:23:35.665Z,83.92
2019-02-28T23:26:43.125Z,83.96
2019-02-28T23:29:08.915Z,83.61
2019-02-28T23:32:14.478Z,83.85
2019-02-28T23:34:40.262Z,83.47
2019-02-28T23:37:06.057Z,83.67
2019-02-28T23:39:31.836Z,83.77
2019-02-28T23:41:57.633Z,83.94
2019-02-28T23:44:23.410Z,83.85
2019-02-28T23:46:49.232Z,84.05
2019-02-28T23:49:15.018Z,83.99
2019-02-28T23:51:40.795Z,84.08
2019-02-28T23:54:06.588Z,84.37
2019-02-28T23:56:32.368Z,84.13
2019-02-28T23:58:58.177Z,83.90
